createdAt,value
2023-01-09T00:00:43.693Z,20.77
2023-01-09T00:05:47.361Z,26.73
2023-01-09T00:10:52.667Z,21.63
2023-01-09T00:15:56.536Z,21.30
2023-01-09T00:21:01.427Z,21.20
2023-01-09T00:26:09.406Z,19.77
2023-01-09T00:31:13.133Z,23.23
2023-01-09T00:36:16.774Z,16.88
2023-01-09T00:41:26.466Z,22.52
2023-01-09T00:46:33.707Z,25.23
2023-01-09T00:51:39.135Z,21.25
2023-01-09T00:56:44.826Z,25.52
2023-01-09T01:01:48.709Z,30.88
2023-01-09T01:06:52.414Z,25.25
2023-01-09T01:11:57.712Z,22.98
2023-01-09T01:17:01.374Z,23.17
2023-01-09T01:22:05.089Z,26.42
2023-01-09T01:27:10.369Z,29.77
2023-01-09T01:32:14.017Z,22.30
2023-01-09T01:37:17.674Z,20.50
2023-01-09T01:42:22.960Z,22.50
2023-01-09T01:47:41.150Z,23.67
2023-01-09T01:52:49.065Z,27.45
2023-01-09T01:57:57.851Z,24.67
2023-01-09T02:03:02.681Z,21.90
2023-01-09T02:08:07.421Z,23.60
2023-01-09T02:13:14.732Z,21.50
2023-01-09T02:18:37.777Z,23.83
2023-01-09T02:24:17.088Z,25.30
2023-01-09T02:29:55.115Z,20.50
2023-01-09T02:35:17.188Z,31.33
2023-01-09T02:40:27.425Z,29.88
2023-01-09T02:45:31.805Z,28.48
2023-01-09T02:50:42.919Z,42.25
2023-01-09T02:56:12.042Z,22.42
2023-01-09T03:01:27.600Z,20.50
2023-01-09T03:06:38.521Z,29.77
2023-01-09T03:11:47.005Z,21.23
2023-01-09T03:16:56.550Z,26.38
2023-01-09T03:22:02.083Z,25.73
2023-01-09T03:27:07.443Z,26.63
2023-01-09T03:32:11.799Z,20.50
2023-01-09T03:37:17.084Z,20.48
2023-01-09T03:42:20.685Z,21.03
2023-01-09T03:47:24.299Z,24.60
2023-01-09T03:52:30.295Z,21.67
2023-01-09T04:02:37.599Z,18.95
2023-01-09T04:07:42.963Z,19.05
2023-01-09T04:12:46.591Z,17.73
2023-01-09T04:17:50.249Z,22.02
2023-01-09T04:22:55.509Z,16.73
2023-01-09T04:27:59.330Z,15.47
2023-01-09T04:33:02.979Z,18.45
2023-01-09T04:38:08.269Z,17.92
2023-01-09T04:43:11.869Z,18.37
2023-01-09T04:48:15.580Z,12.15
2023-01-09T04:53:20.917Z,20.30
2023-01-09T04:58:24.554Z,15.93
2023-01-09T05:03:28.169Z,15.75
2023-01-09T05:08:33.432Z,16.40
2023-01-09T05:13:37.852Z,12.53
2023-01-09T05:18:41.553Z,9.48
2023-01-09T05:23:46.851Z,11.93
2023-01-09T05:28:50.599Z,9.00
2023-01-09T05:33:54.812Z,8.18
2023-01-09T05:39:00.147Z,7.97
2023-01-09T05:44:03.782Z,10.30
2023-01-09T05:49:07.433Z,8.40
2023-01-09T05:54:12.681Z,11.77
2023-01-09T05:59:16.308Z,9.47
2023-01-09T06:04:20.036Z,13.95
2023-01-09T06:09:25.390Z,11.23
2023-01-09T06:14:29.100Z,10.03
2023-01-09T06:19:32.794Z,9.93
2023-01-09T06:24:38.250Z,8.88
2023-01-09T06:29:42.190Z,14.47
2023-01-09T06:40:44.832Z,10.52
2023-01-09T06:45:50.124Z,5.57
2023-01-09T06:50:54.117Z,10.77
2023-01-09T06:55:57.721Z,9.32
2023-01-09T07:01:03.147Z,10.52
2023-01-09T07:06:07.808Z,8.23
2023-01-09T07:11:13.164Z,8.32
2023-01-09T07:16:18.476Z,6.27
2023-01-09T07:21:22.243Z,10.03
2023-01-09T07:26:25.866Z,9.68
2023-01-09T07:31:31.317Z,6.53
2023-01-09T07:36:34.960Z,10.53
2023-01-09T07:41:38.587Z,10.02
2023-01-09T07:46:43.861Z,5.35
2023-01-09T07:51:47.491Z,6.67
2023-01-09T07:56:51.329Z,7.93
2023-01-09T08:01:56.748Z,8.13
2023-01-09T08:07:00.497Z,5.77
2023-01-09T08:12:04.287Z,9.77
2023-01-09T08:17:09.613Z,7.05
2023-01-09T08:22:13.233Z,5.60
2023-01-09T08:27:16.845Z,7.03
2023-01-09T08:32:22.156Z,8.93
2023-01-09T08:37:25.778Z,7.47
2023-01-09T08:42:29.382Z,6.80
2023-01-09T08:47:34.817Z,5.38
2023-01-09T08:52:38.580Z,3.80
2023-01-09T08:57:48.936Z,4.22
2023-01-09T09:02:55.248Z,5.50
2023-01-09T09:07:59.823Z,3.63
2023-01-09T09:13:03.427Z,7.38
2023-01-09T09:18:09.222Z,9.52
2023-01-09T09:23:12.922Z,6.75
2023-01-09T09:28:16.577Z,5.72
2023-01-09T09:33:21.850Z,6.85
2023-01-09T09:38:25.489Z,11.30
2023-01-09T09:43:47.625Z,7.75
2023-01-09T09:48:56.722Z,6.40
2023-01-09T09:54:04.768Z,7.53
2023-01-09T09:59:13.211Z,5.10
2023-01-09T10:04:21.040Z,10.25
2023-01-09T10:09:36.978Z,7.93
2023-01-09T10:14:41.064Z,11.30
2023-01-09T10:20:10.201Z,11.15
2023-01-09T10:25:25.398Z,13.73
2023-01-09T10:30:38.370Z,18.52
2023-01-09T10:36:13.700Z,13.68
2023-01-09T10:41:24.928Z,11.93
2023-01-09T10:46:37.418Z,12.98
2023-01-09T10:51:47.764Z,15.30
2023-01-09T10:56:57.049Z,15.55
2023-01-09T11:02:01.840Z,13.48
2023-01-09T11:07:14.738Z,14.15
2023-01-09T11:12:28.327Z,15.15
2023-01-09T11:17:31.916Z,7.97
2023-01-09T11:22:45.164Z,10.75
2023-01-09T11:28:05.811Z,7.80
2023-01-09T11:33:16.139Z,8.38
2023-01-09T11:38:19.787Z,5.18
2023-01-09T11:43:33.929Z,11.65
2023-01-09T11:48:53.811Z,10.93
2023-01-09T11:54:22.353Z,5.65
2023-01-09T11:59:30.050Z,5.97
2023-01-09T12:04:39.507Z,5.15
2023-01-09T12:09:52.145Z,9.73
2023-01-09T12:15:19.815Z,5.63
2023-01-09T12:20:34.013Z,3.88
2023-01-09T12:25:48.269Z,9.05
2023-01-09T12:31:07.077Z,5.43
2023-01-09T12:36:18.102Z,5.63
2023-01-09T12:41:44.311Z,6.18
2023-01-09T12:47:00.086Z,5.72
2023-01-09T12:52:10.967Z,1.17
2023-01-09T12:57:22.540Z,5.10
2023-01-09T13:02:32.328Z,4.97
2023-01-09T13:07:41.401Z,5.78
2023-01-09T13:12:48.313Z,8.32
2023-01-09T13:17:58.788Z,6.28
2023-01-09T13:23:04.746Z,8.68
2023-01-09T13:28:16.032Z,5.22
2023-01-09T13:33:25.072Z,4.03
2023-01-09T13:38:30.967Z,3.70
2023-01-09T13:43:56.093Z,4.32
2023-01-09T13:49:01.391Z,3.13
2023-01-09T13:54:05.181Z,5.33
2023-01-09T13:59:28.340Z,3.13
2023-01-09T14:04:47.894Z,4.82
2023-01-09T14:09:56.222Z,7.75
2023-01-09T14:15:01.876Z,12.25
2023-01-09T14:20:23.562Z,11.63
2023-01-09T14:25:29.026Z,15.93
2023-01-09T14:30:35.353Z,8.90
2023-01-09T14:35:47.615Z,12.18
2023-01-09T14:40:56.662Z,10.60
2023-01-09T14:46:05.678Z,6.15
2023-01-09T14:51:17.728Z,7.90
2023-01-09T14:56:30.574Z,9.55
2023-01-09T15:01:36.443Z,8.00
2023-01-09T15:06:43.773Z,7.90
2023-01-09T15:11:47.568Z,9.57
2023-01-09T15:16:51.376Z,12.27
2023-01-09T15:22:01.813Z,12.02
2023-01-09T15:27:12.822Z,13.75
2023-01-09T15:32:19.566Z,9.70
2023-01-09T15:37:30.053Z,14.70
2023-01-09T15:42:37.501Z,8.25
2023-01-09T15:47:41.153Z,12.70
2023-01-09T15:52:46.740Z,11.20
2023-01-09T15:57:53.500Z,20.42
2023-01-09T16:02:57.411Z,23.88
2023-01-09T16:08:03.548Z,17.48
2023-01-09T16:18:29.810Z,24.38
2023-01-09T16:23:36.661Z,25.83
2023-01-09T16:28:40.925Z,23.50
2023-01-09T16:33:47.322Z,23.17
2023-01-09T16:38:54.257Z,27.65
2023-01-09T16:43:57.904Z,23.33
2023-01-09T16:49:01.760Z,32.22
2023-01-09T16:54:07.156Z,27.30
2023-01-09T16:59:13.954Z,31.00
2023-01-09T17:04:18.312Z,28.98
2023-01-09T17:09:26.522Z,25.20
2023-01-09T17:14:30.930Z,27.35
2023-01-09T17:19:34.548Z,24.27
2023-01-09T17:24:39.811Z,27.30
2023-01-09T17:29:43.982Z,26.67
2023-01-09T17:34:47.620Z,26.08
2023-01-09T17:39:52.918Z,31.65
2023-01-09T17:44:56.573Z,27.60
2023-01-09T17:50:00.193Z,26.30
2023-01-09T17:55:08.193Z,27.38
2023-01-09T18:00:24.325Z,23.55
2023-01-09T18:05:27.973Z,29.52
2023-01-09T18:10:33.333Z,31.67
2023-01-09T18:15:37.008Z,36.67
2023-01-09T18:20:41.313Z,33.67
2023-01-09T18:25:47.308Z,36.75
2023-01-09T18:30:53.401Z,26.85
2023-01-09T18:35:57.096Z,26.40
2023-01-09T18:41:03.385Z,31.52
2023-01-09T18:46:07.755Z,25.20
2023-01-09T18:51:11.419Z,27.30
2023-01-09T18:56:17.062Z,24.70
2023-01-09T19:01:20.719Z,29.98
2023-01-09T19:06:24.504Z,31.50
2023-01-09T19:11:29.844Z,29.25
2023-01-09T19:16:33.581Z,46.30
2023-01-09T19:21:37.969Z,37.35
2023-01-09T19:26:43.282Z,31.77
2023-01-09T19:31:47.052Z,26.60
2023-01-09T19:36:51.116Z,39.38
2023-01-09T19:41:57.391Z,23.83
2023-01-09T19:47:01.001Z,32.47
2023-01-09T19:52:04.943Z,23.88
2023-01-09T19:57:10.230Z,28.35
2023-01-09T20:02:13.936Z,34.90
2023-01-09T20:07:17.600Z,35.45
2023-01-09T20:12:22.951Z,29.77
2023-01-09T20:17:26.609Z,38.20
2023-01-09T20:22:30.923Z,27.55
2023-01-09T20:27:36.201Z,32.13
2023-01-09T20:32:39.820Z,29.40
2023-01-09T20:37:43.424Z,30.27
2023-01-09T20:42:48.709Z,34.67
2023-01-09T20:47:52.631Z,25.23
2023-01-09T20:52:56.256Z,32.78
2023-01-09T20:58:01.587Z,30.02
2023-01-09T21:03:05.249Z,28.45
2023-01-09T21:08:08.858Z,31.85
2023-01-09T21:13:14.117Z,32.58
2023-01-09T21:18:17.731Z,27.37
2023-01-09T21:23:21.412Z,36.72
2023-01-09T21:28:27.264Z,27.92
2023-01-09T21:38:34.189Z,36.78
2023-01-09T21:43:39.495Z,30.92
2023-01-09T21:48:43.110Z,31.55
2023-01-09T21:53:46.735Z,24.67
2023-01-09T21:58:52.083Z,28.85
2023-01-09T22:03:56.208Z,29.60
2023-01-09T22:09:02.921Z,30.38
2023-01-09T22:14:11.591Z,29.98
2023-01-09T22:19:16.001Z,25.42
2023-01-09T22:24:20.336Z,34.22
2023-01-09T22:29:25.771Z,39.45
2023-01-09T22:34:29.735Z,45.03
2023-01-09T22:39:33.386Z,40.47
2023-01-09T22:44:38.674Z,54.45
2023-01-09T22:49:52.235Z,40.85
2023-01-09T22:54:56.187Z,40.00
2023-01-09T23:00:01.505Z,42.45
2023-01-09T23:05:05.505Z,50.30
2023-01-09T23:10:10.182Z,40.13
2023-01-09T23:15:15.497Z,33.75
2023-01-09T23:20:19.229Z,39.40
2023-01-09T23:25:22.867Z,40.08
2023-01-09T23:30:28.156Z,35.63
2023-01-09T23:35:31.812Z,39.03
2023-01-09T23:40:37.061Z,47.72
2023-01-09T23:45:43.496Z,36.13
2023-01-09T23:50:51.020Z,38.70
2023-01-09T23:55:55.101Z,38.00
